Time,TemperatureF,DewpointF,PressureIn,WindDirection,WindDirectionDegrees,WindSpeedMPH,WindSpeedGustMPH,Humidity,HourlyPrecipIn,Conditions,Clouds,dailyrainin,SoftwareType,DateUTC
2013-03-10 00:01:00,5.0,0.0,-100.00,WSW,251,0.0,9.0,80,-99.99,,,-99.99,,2013-03-10 07:01:00,
2013-03-10 00:11:00,5.0,0.0,-100.00,WSW,251,0.0,8.0,79,-99.99,,,-99.99,,2013-03-10 07:11:00,
2013-03-10 00:21:00,6.0,-1.0,-100.00,West,274,2.0,9.0,74,-99.99,,,-99.99,,2013-03-10 07:21:00,
2013-03-10 00:31:00,6.0,-1.0,-100.00,North,359,8.0,9.0,74,-99.99,,,-99.99,,2013-03-10 07:31:00,
2013-03-10 00:42:00,6.0,-1.0,-100.00,West,274,6.0,9.0,74,-99.99,,,-99.99,,2013-03-10 07:42:00,
2013-03-10 00:52:00,6.0,-2.0,-100.00,West,274,6.0,15.0,71,-99.99,,,-99.99,,2013-03-10 07:52:00,
2013-03-10 01:01:00,6.0,-2.0,-100.00,WSW,256,5.0,15.0,71,-99.99,,,-99.99,,2013-03-10 08:01:00,
2013-03-10 01:11:00,6.0,-2.0,-100.00,West,274,4.0,9.0,69,-99.99,,,-99.99,,2013-03-10 08:11:00,
2013-03-10 01:21:00,6.0,-2.0,-100.00,West,274,4.0,12.0,69,-99.99,,,-99.99,,2013-03-10 08:21:00,
2013-03-10 01:31:00,6.0,-2.0,-100.00,WSW,256,7.0,12.0,69,-99.99,,,-99.99,,2013-03-10 08:31:00,
2013-03-10 01:42:00,6.0,-4.0,-100.00,WSW,256,7.0,10.0,63,-99.99,,,-99.99,,2013-03-10 08:42:00,
2013-03-10 01:51:00,5.0,-3.0,-100.00,WNW,285,3.0,12.0,70,-99.99,,,-99.99,,2013-03-10 08:51:00,
2013-03-10 03:01:00,5.0,-3.0,-100.00,West,268,8.0,12.0,70,-99.99,,,-99.99,,2013-03-10 09:01:00,
2013-03-10 03:11:00,5.0,-3.0,-100.00,SSE,154,8.0,14.0,71,-99.99,,,-99.99,,2013-03-10 09:11:00,
2013-03-10 03:21:00,5.0,-2.0,-100.00,WNW,285,6.0,11.0,73,-99.99,,,-99.99,,2013-03-10 09:21:00,
2013-03-10 03:31:00,5.0,-2.0,-100.00,West,262,9.0,11.0,73,-99.99,,,-99.99,,2013-03-10 09:31:00,
2013-03-10 03:41:00,5.0,-2.0,-100.00,WSW,239,7.0,16.0,75,-99.99,,,-99.99,,2013-03-10 09:41:00,
2013-03-10 03:51:00,5.0,-2.0,-100.00,West,262,8.0,13.0,74,-99.99,,,-99.99,,2013-03-10 09:51:00,
2013-03-10 04:01:00,5.0,-2.0,-100.00,WSW,256,8.0,13.0,74,-99.99,,,-99.99,,2013-03-10 10:01:00,
2013-03-10 04:11:00,5.0,-2.0,-100.00,WSW,256,8.0,15.0,74,-99.99,,,-99.99,,2013-03-10 10:11:00,
2013-03-10 04:21:00,6.0,-1.0,-100.00,SSW,211,8.0,15.0,72,-99.99,,,-99.99,,2013-03-10 10:21:00,
2013-03-10 04:32:00,6.0,-1.0,-100.00,West,262,9.0,15.0,72,-99.99,,,-99.99,,2013-03-10 10:32:00,
2013-03-10 04:41:00,6.0,-1.0,-100.00,NNW,331,10.0,14.0,73,-99.99,,,-99.99,,2013-03-10 10:41:00,
2013-03-10 04:51:00,6.0,-2.0,-100.00,WSW,251,9.0,17.0,71,-99.99,,,-99.99,,2013-03-10 10:51:00,
2013-03-10 05:01:00,6.0,-2.0,-100.00,WSW,239,10.0,17.0,71,-99.99,,,-99.99,,2013-03-10 11:01:00,
2013-03-10 05:11:00,6.0,-2.0,-100.00,WSW,251,9.0,16.0,70,-99.99,,,-99.99,,2013-03-10 11:11:00,
2013-03-10 05:21:00,6.0,-2.0,-100.00,West,262,9.0,16.0,71,-99.99,,,-99.99,,2013-03-10 11:21:00,
2013-03-10 05:31:00,6.0,-2.0,-100.00,WSW,239,9.0,16.0,71,-99.99,,,-99.99,,2013-03-10 11:31:00,
2013-03-10 05:42:00,6.0,-2.0,-100.00,WNW,296,9.0,18.0,69,-99.99,,,-99.99,,2013-03-10 11:42:00,
2013-03-10 05:52:00,6.0,-3.0,-100.00,West,274,9.0,14.0,68,-99.99,,,-99.99,,2013-03-10 11:52:00,
2013-03-10 06:01:00,6.0,-3.0,-100.00,West,279,11.0,14.0,68,-99.99,,,-99.99,,2013-03-10 12:01:00,
2013-03-10 06:11:00,7.0,-2.0,-100.00,SW,228,9.0,16.0,68,-99.99,,,-99.99,,2013-03-10 12:11:00,
2013-03-10 06:21:00,6.0,-3.0,-100.00,West,268,10.0,16.0,68,-99.99,,,-99.99,,2013-03-10 12:21:00,
2013-03-10 06:31:00,6.0,-3.0,-100.00,SSW,205,9.0,16.0,68,-99.99,,,-99.99,,2013-03-10 12:31:00,
2013-03-10 06:42:00,6.0,-3.0,-100.00,NW,308,9.0,19.0,68,-99.99,,,-99.99,,2013-03-10 12:42:00,
2013-03-10 06:51:00,7.0,-2.0,-100.00,WNW,291,9.0,15.0,66,-99.99,,,-99.99,,2013-03-10 12:51:00,
2013-03-10 07:01:00,7.0,-2.0,-100.00,NW,308,9.0,15.0,66,-99.99,,,-99.99,,2013-03-10 13:01:00,
2013-03-10 07:11:00,7.0,-3.0,-100.00,West,262,7.0,16.0,65,-99.99,,,-99.99,,2013-03-10 13:11:00,
2013-03-10 07:21:00,7.0,-3.0,-100.00,West,279,7.0,12.0,65,-99.99,,,-99.99,,2013-03-10 13:21:00,
2013-03-10 07:31:00,7.0,-3.0,-100.00,WSW,256,8.0,12.0,65,-99.99,,,-99.99,,2013-03-10 13:31:00,
2013-03-10 07:41:00,7.0,-3.0,-100.00,WNW,285,7.0,14.0,64,-99.99,,,-99.99,,2013-03-10 13:41:00,
2013-03-10 07:52:00,8.0,-2.0,-100.00,West,279,7.0,14.0,65,-99.99,,,-99.99,,2013-03-10 13:52:00,
2013-03-10 08:01:00,8.0,-2.0,-100.00,NNW,342,7.0,14.0,65,-99.99,,,-99.99,,2013-03-10 14:01:00,
2013-03-10 08:11:00,10.0,0.0,-100.00,NNW,342,7.0,12.0,63,-99.99,,,-99.99,,2013-03-10 14:11:00,
2013-03-10 08:21:00,11.0,0.0,-100.00,WNW,296,5.0,10.0,60,-99.99,,,-99.99,,2013-03-10 14:21:00,
2013-03-10 08:32:00,11.0,0.0,-100.00,WNW,285,6.0,10.0,60,-99.99,,,-99.99,,2013-03-10 14:32:00,
2013-03-10 08:41:00,13.0,1.0,-100.00,WNW,285,6.0,11.0,59,-99.99,,,-99.99,,2013-03-10 14:41:00,
2013-03-10 08:51:00,14.0,1.0,-100.00,WSW,239,6.0,12.0,56,-99.99,,,-99.99,,2013-03-10 14:51:00,
2013-03-10 09:01:00,14.0,1.0,-100.00,NNW,342,6.0,12.0,56,-99.99,,,-99.99,,2013-03-10 15:01:00,
2013-03-10 09:11:00,16.0,3.0,-100.00,NNW,342,6.0,12.0,57,-99.99,,,-99.99,,2013-03-10 15:11:00,
2013-03-10 09:21:00,16.0,3.0,-100.00,West,262,7.0,12.0,57,-99.99,,,-99.99,,2013-03-10 15:21:00,
2013-03-10 09:32:00,18.0,4.0,-100.00,West,262,7.0,12.0,53,-99.99,,,-99.99,,2013-03-10 15:32:00,
2013-03-10 09:42:00,21.0,4.0,-100.00,WNW,302,3.0,11.0,47,-99.99,,,-99.99,,2013-03-10 15:42:00,
2013-03-10 09:51:00,20.0,4.0,-100.00,WNW,302,3.0,11.0,49,-99.99,,,-99.99,,2013-03-10 15:51:00,
2013-03-10 10:01:00,20.0,4.0,-100.00,NW,308,4.0,11.0,49,-99.99,,,-99.99,,2013-03-10 16:01:00,
2013-03-10 10:12:00,20.0,5.0,-100.00,WSW,239,7.0,13.0,52,-99.99,,,-99.99,,2013-03-10 16:12:00,
2013-03-10 10:21:00,20.0,5.0,-100.00,NNW,348,7.0,15.0,51,-99.99,,,-99.99,,2013-03-10 16:21:00,
2013-03-10 10:31:00,20.0,5.0,-100.00,NNW,348,7.0,15.0,51,-99.99,,,-99.99,,2013-03-10 16:31:00,
2013-03-10 10:41:00,22.0,6.0,-100.00,WNW,291,5.0,11.0,49,-99.99,,,-99.99,,2013-03-10 16:41:00,
2013-03-10 10:51:00,26.0,9.0,-100.00,West,268,7.0,14.0,48,-99.99,,,-99.99,,2013-03-10 16:51:00,
2013-03-10 11:01:00,26.0,9.0,-100.00,West,268,7.0,14.0,48,-99.99,,,-99.99,,2013-03-10 17:01:00,
2013-03-10 11:11:00,29.0,10.0,-100.00,NNW,331,4.0,11.0,44,-99.99,,,-99.99,,2013-03-10 17:11:00,
2013-03-10 11:21:00,26.0,8.0,-100.00,NNW,331,4.0,11.0,46,-99.99,,,-99.99,,2013-03-10 17:21:00,
2013-03-10 11:31:00,26.0,8.0,-100.00,NNW,342,4.0,11.0,46,-99.99,,,-99.99,,2013-03-10 17:31:00,
2013-03-10 11:41:00,24.0,8.0,-100.00,West,268,7.0,16.0,49,-99.99,,,-99.99,,2013-03-10 17:41:00,
2013-03-10 11:51:00,23.0,7.0,-100.00,West,262,8.0,18.0,50,-99.99,,,-99.99,,2013-03-10 17:51:00,
2013-03-10 12:01:00,23.0,7.0,-100.00,West,268,9.0,18.0,50,-99.99,,,-99.99,,2013-03-10 18:01:00,
2013-03-10 12:11:00,23.0,7.0,-100.00,West,268,8.0,16.0,50,-99.99,,,-99.99,,2013-03-10 18:11:00,
2013-03-10 12:21:00,26.0,9.0,-100.00,West,268,8.0,14.0,47,-99.99,,,-99.99,,2013-03-10 18:21:00,
2013-03-10 12:31:00,26.0,9.0,-100.00,NNE,28,5.0,14.0,47,-99.99,,,-99.99,,2013-03-10 18:31:00,
2013-03-10 12:41:00,32.0,9.0,-100.00,NNE,28,5.0,13.0,37,-99.99,,,-99.99,,2013-03-10 18:41:00,
2013-03-10 12:52:00,35.0,12.0,-100.00,NE,34,4.0,13.0,36,-99.99,,,-99.99,,2013-03-10 18:52:00,
2013-03-10 13:01:00,35.0,12.0,-100.00,North,6,5.0,13.0,36,-99.99,,,-99.99,,2013-03-10 19:01:00,
2013-03-10 13:11:00,34.0,10.0,-100.00,North,6,5.0,14.0,35,-99.99,,,-99.99,,2013-03-10 19:11:00,
2013-03-10 13:21:00,30.0,8.0,-100.00,North,0,6.0,15.0,38,-99.99,,,-99.99,,2013-03-10 19:21:00,
2013-03-10 13:31:00,30.0,8.0,-100.00,West,274,6.0,15.0,38,-99.99,,,-99.99,,2013-03-10 19:31:00,
2013-03-10 13:42:00,28.0,9.0,-100.00,West,279,8.0,13.0,44,-99.99,,,-99.99,,2013-03-10 19:42:00,
2013-03-10 13:52:00,31.0,9.0,-100.00,NNW,348,6.0,13.0,37,-99.99,,,-99.99,,2013-03-10 19:52:00,
2013-03-10 14:02:00,31.0,9.0,-100.00,NNW,348,6.0,13.0,37,-99.99,,,-99.99,,2013-03-10 20:02:00,
2013-03-10 14:12:00,35.0,11.0,-100.00,NNW,348,6.0,9.0,35,-99.99,,,-99.99,,2013-03-10 20:12:00,
2013-03-10 14:22:00,30.0,11.0,-100.00,WSW,256,3.0,14.0,43,-99.99,,,-99.99,,2013-03-10 20:22:00,
2013-03-10 14:32:00,30.0,11.0,-100.00,West,274,5.0,14.0,43,-99.99,,,-99.99,,2013-03-10 20:32:00,
2013-03-10 14:42:00,30.0,10.0,-100.00,West,274,5.0,12.0,42,-99.99,,,-99.99,,2013-03-10 20:42:00,
2013-03-10 14:52:00,28.0,10.0,-100.00,WNW,291,5.0,12.0,46,-99.99,,,-99.99,,2013-03-10 20:52:00,
2013-03-10 15:02:00,28.0,10.0,-100.00,NNW,331,7.0,12.0,46,-99.99,,,-99.99,,2013-03-10 21:02:00,
2013-03-10 15:12:00,30.0,10.0,-100.00,West,262,5.0,13.0,42,-99.99,,,-99.99,,2013-03-10 21:12:00,
2013-03-10 15:22:00,29.0,9.0,-100.00,West,262,5.0,12.0,43,-99.99,,,-99.99,,2013-03-10 21:22:00,
2013-03-10 15:32:00,29.0,9.0,-100.00,WNW,302,6.0,12.0,43,-99.99,,,-99.99,,2013-03-10 21:32:00,
2013-03-10 15:42:00,29.0,10.0,-100.00,North,359,5.0,11.0,45,-99.99,,,-99.99,,2013-03-10 21:42:00,
2013-03-10 15:52:00,27.0,9.0,-100.00,WSW,245,8.0,15.0,46,-99.99,,,-99.99,,2013-03-10 21:52:00,
2013-03-10 16:02:00,27.0,9.0,-100.00,West,268,8.0,15.0,46,-99.99,,,-99.99,,2013-03-10 22:02:00,
2013-03-10 16:12:00,30.0,11.0,-100.00,West,274,5.0,15.0,43,-99.99,,,-99.99,,2013-03-10 22:12:00,
2013-03-10 16:22:00,26.0,9.0,-100.00,NNW,342,8.0,12.0,48,-99.99,,,-99.99,,2013-03-10 22:22:00,
2013-03-10 16:32:00,26.0,9.0,-100.00,WSW,256,9.0,12.0,48,-99.99,,,-99.99,,2013-03-10 22:32:00,
2013-03-10 16:42:00,24.0,9.0,-100.00,NW,319,10.0,18.0,52,-99.99,,,-99.99,,2013-03-10 22:42:00,
2013-03-10 16:52:00,24.0,9.0,-100.00,West,279,10.0,19.0,52,-99.99,,,-99.99,,2013-03-10 22:52:00,
2013-03-10 17:02:00,24.0,9.0,-100.00,West,279,10.0,19.0,52,-99.99,,,-99.99,,2013-03-10 23:02:00,
2013-03-10 17:12:00,25.0,9.0,-100.00,WSW,245,8.0,15.0,49,-99.99,,,-99.99,,2013-03-10 23:12:00,
2013-03-10 17:22:00,22.0,8.0,-100.00,WSW,256,11.0,17.0,56,-99.99,,,-99.99,,2013-03-10 23:22:00,
2013-03-10 17:32:00,22.0,8.0,-100.00,West,268,11.0,17.0,56,-99.99,,,-99.99,,2013-03-10 23:32:00,
2013-03-10 17:42:00,22.0,9.0,-100.00,West,268,11.0,17.0,58,-99.99,,,-99.99,,2013-03-10 23:42:00,
2013-03-10 17:52:00,21.0,9.0,-100.00,SW,228,11.0,18.0,59,-99.99,,,-99.99,,2013-03-10 23:52:00,
2013-03-10 18:02:00,21.0,9.0,-100.00,WNW,302,13.0,18.0,59,-99.99,,,-99.99,,2013-03-11 00:02:00,
2013-03-10 18:12:00,21.0,8.0,-100.00,NW,308,10.0,18.0,57,-99.99,,,-99.99,,2013-03-11 00:12:00,
2013-03-10 18:22:00,21.0,7.0,-100.00,West,268,8.0,15.0,55,-99.99,,,-99.99,,2013-03-11 00:22:00,
2013-03-10 18:32:00,21.0,7.0,-100.00,SW,222,11.0,15.0,55,-99.99,,,-99.99,,2013-03-11 00:32:00,
2013-03-10 18:42:00,19.0,9.0,-100.00,WNW,285,10.0,18.0,66,-99.99,,,-99.99,,2013-03-11 00:42:00,
2013-03-10 18:52:00,18.0,8.0,-100.00,WNW,285,10.0,17.0,65,-99.99,,,-99.99,,2013-03-11 00:52:00,
2013-03-10 19:02:00,18.0,8.0,-100.00,WNW,296,12.0,17.0,65,-99.99,,,-99.99,,2013-03-11 01:02:00,
2013-03-10 19:12:00,19.0,9.0,-100.00,WSW,245,9.0,22.0,65,-99.99,,,-99.99,,2013-03-11 01:12:00,
2013-03-10 19:22:00,19.0,9.0,-100.00,WSW,245,9.0,22.0,65,-99.99,,,-99.99,,2013-03-11 01:22:00,
2013-03-10 19:32:00,19.0,9.0,-100.00,WSW,256,4.0,16.0,65,-99.99,,,-99.99,,2013-03-11 01:32:00,
2013-03-10 19:42:00,19.0,8.0,-100.00,West,268,10.0,17.0,64,-99.99,,,-99.99,,2013-03-11 01:42:00,
2013-03-10 19:52:00,19.0,9.0,-100.00,WSW,251,11.0,14.0,64,-99.99,,,-99.99,,2013-03-11 01:52:00,
2013-03-10 20:02:00,19.0,9.0,-100.00,West,262,13.0,14.0,64,-99.99,,,-99.99,,2013-03-11 02:02:00,
2013-03-10 20:12:00,17.0,8.0,-100.00,WSW,239,12.0,22.0,69,-99.99,,,-99.99,,2013-03-11 02:12:00,
2013-03-10 20:22:00,18.0,8.0,-100.00,WSW,256,13.0,17.0,66,-99.99,,,-99.99,,2013-03-11 02:22:00,
2013-03-10 20:32:00,18.0,8.0,-100.00,WSW,239,13.0,17.0,66,-99.99,,,-99.99,,2013-03-11 02:32:00,
2013-03-10 20:42:00,18.0,9.0,-100.00,West,262,12.0,19.0,67,-99.99,,,-99.99,,2013-03-11 02:42:00,
2013-03-10 20:52:00,19.0,8.0,-100.00,West,262,12.0,12.0,64,-99.99,,,-99.99,,2013-03-11 02:52:00,
2013-03-10 21:02:00,19.0,8.0,-100.00,WSW,256,12.0,12.0,64,-99.99,,,-99.99,,2013-03-11 03:02:00,
2013-03-10 21:12:00,19.0,9.0,-100.00,West,279,15.0,20.0,64,-99.99,,,-99.99,,2013-03-11 03:12:00,
2013-03-10 21:22:00,20.0,9.0,-100.00,NNW,348,12.0,23.0,62,-99.99,,,-99.99,,2013-03-11 03:22:00,
2013-03-10 21:32:00,20.0,9.0,-100.00,West,274,11.0,23.0,62,-99.99,,,-99.99,,2013-03-11 03:32:00,
2013-03-10 21:42:00,20.0,8.0,-100.00,SW,234,13.0,19.0,60,-99.99,,,-99.99,,2013-03-11 03:42:00,
2013-03-10 21:52:00,20.0,9.0,-100.00,West,274,15.0,20.0,62,-99.99,,,-99.99,,2013-03-11 03:52:00,
2013-03-10 22:02:00,20.0,9.0,-100.00,West,274,15.0,20.0,62,-99.99,,,-99.99,,2013-03-11 04:02:00,
2013-03-10 22:12:00,19.0,8.0,-100.00,West,268,15.0,21.0,63,-99.99,,,-99.99,,2013-03-11 04:12:00,
2013-03-10 22:22:00,19.0,9.0,-100.00,WSW,256,17.0,24.0,67,-99.99,,,-99.99,,2013-03-11 04:22:00,
2013-03-10 22:32:00,19.0,9.0,-100.00,WSW,256,18.0,24.0,67,-99.99,,,-99.99,,2013-03-11 04:32:00,
2013-03-10 22:42:00,18.0,9.0,-100.00,SW,234,19.0,27.0,69,-99.99,,,-99.99,,2013-03-11 04:42:00,
2013-03-10 22:53:00,18.0,9.0,-100.00,West,279,19.0,27.0,69,-99.99,,,-99.99,,2013-03-11 04:53:00,
2013-03-10 23:03:00,19.0,10.0,-100.00,West,268,18.0,25.0,68,-99.99,,,-99.99,,2013-03-11 05:03:00,
2013-03-10 23:12:00,18.0,9.0,-100.00,NW,308,20.0,26.0,69,-99.99,,,-99.99,,2013-03-11 05:12:00,
2013-03-10 23:22:00,19.0,9.0,-100.00,SSW,194,20.0,29.0,66,-99.99,,,-99.99,,2013-03-11 05:22:00,
2013-03-10 23:32:00,19.0,9.0,-100.00,WSW,256,21.0,29.0,66,-99.99,,,-99.99,,2013-03-11 05:32:00,
2013-03-10 23:42:00,20.0,8.0,-100.00,NW,308,22.0,30.0,61,-99.99,,,-99.99,,2013-03-11 05:42:00,
2013-03-10 23:52:00,19.0,8.0,-100.00,WNW,285,17.0,33.0,63,-99.99,,,-99.99,,2013-03-11 05:52:00,